Time;durP1;ratioP1;P1;durP2;ratioP2;P2;SDS_P1;SDS_P2;PMS_P1;PMS_P2;Temp;Humidity;BMP_temperature;BMP_pressure;BME280_temperature;BME280_humidity;BME280_pressure;Samples;Min_cycle;Max_cycle;Signal;HPM_P1;HPM_P2
2023/06/15 00:01:55;;;;;;;7.57;4.63;;;12.40;99.90;;;12.07;100.00;101104.00;4994412;28;20173;-85
2023/06/15 00:04:21;;;;;;;7.57;3.95;;;12.30;99.90;;;12.06;100.00;101121.44;4997020;28;20061;-87
2023/06/15 00:06:47;;;;;;;5.90;4.38;;;12.20;99.90;;;11.94;100.00;101123.16;4997220;28;20493;-87
2023/06/15 00:09:13;;;;;;;8.02;4.40;;;12.10;99.90;;;11.87;100.00;101125.06;4987657;28;20083;-86
2023/06/15 00:11:38;;;;;;;8.02;4.15;;;12.10;99.90;;;11.82;100.00;101128.44;5001426;28;20038;-87
2023/06/15 00:14:05;;;;;;;7.28;4.30;;;12.00;99.90;;;11.70;100.00;101120.03;5010468;28;20046;-87
2023/06/15 00:16:31;;;;;;;10.48;4.45;;;12.00;99.90;;;11.76;100.00;101129.28;4984783;28;20093;-86
2023/06/15 00:19:01;;;;;;;6.53;4.50;;;12.00;99.90;;;11.71;100.00;101134.56;4986602;28;20034;-86
2023/06/15 00:21:34;;;;;;;7.65;4.28;;;11.90;99.90;;;11.69;100.00;101134.75;4973612;28;20045;-86
2023/06/15 00:23:59;;;;;;;6.65;4.13;;;11.90;99.90;;;11.65;100.00;101125.31;4973504;28;20093;-86
2023/06/15 00:26:26;;;;;;;7.38;4.20;;;11.80;99.90;;;11.72;100.00;101137.06;4976738;28;20030;-85
2023/06/15 00:28:52;;;;;;;6.75;4.30;;;11.90;99.90;;;11.85;100.00;101128.00;4981335;28;20080;-85
2023/06/15 00:31:18;;;;;;;8.60;4.45;;;11.90;99.90;;;11.88;100.00;101126.75;4989642;28;20073;-86
2023/06/15 00:33:44;;;;;;;6.55;4.40;;;12.00;99.90;;;11.92;100.00;101139.75;4978472;28;20082;-85
2023/06/15 00:36:12;;;;;;;7.78;4.32;;;12.00;99.90;;;11.92;100.00;101111.59;4987579;28;20045;-86
2023/06/15 00:38:39;;;;;;;9.43;4.40;;;12.20;99.90;;;12.25;100.00;101120.78;4991960;28;20487;-85
2023/06/15 00:41:05;;;;;;;8.27;4.50;;;12.30;99.90;;;12.47;100.00;101119.41;4979031;28;20050;-85
2023/06/15 00:43:30;;;;;;;9.60;4.00;;;12.50;99.90;;;12.52;100.00;101097.72;4979018;28;20077;-85
2023/06/15 00:45:58;;;;;;;8.57;4.28;;;12.70;99.90;;;12.69;100.00;101116.34;4983768;28;20097;-86
2023/06/15 00:48:24;;;;;;;6.82;4.40;;;12.80;99.90;;;12.71;100.00;101116.13;5000728;28;20038;-86
2023/06/15 00:50:49;;;;;;;6.90;4.03;;;12.80;99.90;;;12.67;100.00;101126.66;4989545;28;20071;-86
2023/06/15 00:53:15;;;;;;;6.07;4.00;;;12.80;99.90;;;12.52;100.00;101105.91;4989503;28;20434;-86
2023/06/15 00:55:43;;;;;;;7.18;3.92;;;12.70;99.90;;;12.47;100.00;101124.91;4974225;28;20320;-86
2023/06/15 00:58:09;;;;;;;8.48;4.50;;;12.60;99.90;;;12.41;100.00;101114.78;4977418;28;20130;-86
2023/06/15 01:00:37;;;;;;;7.60;4.10;;;12.60;99.90;;;12.31;100.00;101100.75;4989241;28;20082;-87
2023/06/15 01:03:06;;;;;;;8.77;4.22;;;12.50;99.90;;;12.40;100.00;101124.06;4989780;28;20053;-86
2023/06/15 01:05:36;;;;;;;8.20;4.22;;;12.40;99.90;;;12.25;100.00;101123.50;4963472;28;20467;-86
2023/06/15 01:08:08;;;;;;;8.00;4.65;;;12.30;99.90;;;12.11;100.00;101128.19;4979062;28;20069;-86
2023/06/15 01:10:35;;;;;;;6.90;4.10;;;12.20;99.90;;;11.98;100.00;101134.50;4976276;28;20487;-86
2023/06/15 01:13:04;;;;;;;7.07;4.40;;;12.00;99.90;;;11.86;100.00;101124.22;4980942;28;20556;-85
2023/06/15 01:15:32;;;;;;;8.00;4.43;;;12.00;99.90;;;11.79;100.00;101112.47;4989276;28;20054;-86
2023/06/15 01:18:02;;;;;;;6.93;4.50;;;12.00;99.90;;;11.91;100.00;101131.78;5000869;28;20472;-86
2023/06/15 01:20:42;;;;;;;7.68;4.18;;;12.00;99.90;;;11.83;100.00;101134.75;4991710;28;20037;-86
2023/06/15 01:23:36;;;;;;;7.90;4.03;;;11.90;99.90;;;11.84;100.00;101133.69;4993108;28;20042;-87
2023/06/15 01:26:06;;;;;;;7.55;4.35;;;11.90;99.90;;;11.63;100.00;101117.31;4992393;28;20039;-85
2023/06/15 01:28:40;;;;;;;9.10;4.47;;;11.70;99.90;;;11.58;100.00;101132.69;4980432;28;20042;-87
2023/06/15 01:31:08;;;;;;;7.63;4.45;;;11.60;99.90;;;11.38;100.00;101111.69;5009432;28;20041;-86
2023/06/15 01:33:47;;;;;;;8.02;4.53;;;11.50;99.90;;;11.31;100.00;101117.13;4994314;28;20137;-86
2023/06/15 01:36:13;;;;;;;9.23;4.93;;;11.40;99.90;;;11.30;100.00;101117.34;4999832;28;20026;-85
2023/06/15 01:38:42;;;;;;;6.97;4.47;;;11.40;99.90;;;11.27;100.00;101123.22;4996253;28;20402;-86
2023/06/15 01:41:10;;;;;;;7.03;4.53;;;11.30;99.90;;;11.17;100.00;101119.03;5012810;28;20034;-85
2023/06/15 01:43:37;;;;;;;7.72;4.47;;;11.30;99.90;;;11.04;100.00;101108.09;4992138;28;20144;-86
2023/06/15 01:46:05;;;;;;;8.40;4.78;;;11.20;99.90;;;11.01;100.00;101117.53;4995835;28;20037;-86
2023/06/15 01:48:32;;;;;;;6.20;4.40;;;11.10;99.90;;;10.84;100.00;101114.38;5004994;28;20037;-86
2023/06/15 01:51:00;;;;;;;6.53;4.43;;;11.00;99.90;;;10.84;100.00;101128.03;4983967;28;20045;-87
2023/06/15 01:53:26;;;;;;;6.78;4.50;;;10.90;99.90;;;10.70;100.00;101121.69;4999700;28;20121;-86
2023/06/15 01:55:56;;;;;;;7.75;4.55;;;10.80;99.90;;;10.63;100.00;101116.22;4992444;28;20038;-86
2023/06/15 01:58:23;;;;;;;6.28;4.45;;;10.80;99.90;;;10.62;100.00;101124.63;4991664;28;20037;-86
2023/06/15 02:00:48;;;;;;;6.47;4.72;;;10.70;99.90;;;10.54;100.00;101127.50;4989372;28;20044;-86
2023/06/15 02:03:14;;;;;;;7.22;4.70;;;10.70;99.90;;;10.52;100.00;101132.31;4998770;28;20127;-86
2023/06/15 02:05:40;;;;;;;7.63;4.60;;;10.60;99.90;;;10.47;100.00;101127.47;4967152;28;20038;-86
2023/06/15 02:08:09;;;;;;;6.32;4.43;;;10.60;99.90;;;10.46;100.00;101129.38;4988983;28;20029;-86
2023/06/15 02:10:35;;;;;;;8.65;5.50;;;10.60;99.90;;;10.42;100.00;101135.44;5001689;28;20038;-85
2023/06/15 02:13:01;;;;;;;11.68;6.00;;;10.50;99.90;;;10.38;100.00;101123.22;4987697;28;20034;-86
2023/06/15 02:15:28;;;;;;;8.57;5.03;;;10.50;99.90;;;10.37;100.00;101130.59;4981467;28;20100;-86
2023/06/15 02:18:00;;;;;;;6.13;4.60;;;10.40;99.90;;;10.40;100.00;101132.03;4986578;28;20061;-86
2023/06/15 02:20:28;;;;;;;8.57;5.15;;;10.40;99.90;;;10.38;100.00;101131.41;4987642;28;20330;-86
2023/06/15 02:22:59;;;;;;;7.95;5.07;;;10.40;99.90;;;10.30;100.00;101116.91;5008400;28;20116;-86
2023/06/15 02:25:27;;;;;;;10.25;6.05;;;10.40;99.90;;;10.31;100.00;101137.69;4989437;28;20041;-86
2023/06/15 02:27:53;;;;;;;8.50;5.25;;;10.40;99.90;;;10.19;100.00;101125.66;4983571;28;20041;-86
2023/06/15 02:30:21;;;;;;;7.70;5.43;;;10.30;99.90;;;10.16;100.00;101129.66;4994785;28;20034;-87
2023/06/15 02:32:48;;;;;;;8.13;5.05;;;10.30;99.90;;;9.89;100.00;101110.44;4958959;28;20034;-87
2023/06/15 02:35:14;;;;;;;6.93;4.80;;;10.20;99.90;;;9.98;100.00;101123.88;5000507;28;20563;-87
2023/06/15 02:37:41;;;;;;;8.10;5.07;;;10.20;99.90;;;9.98;100.00;101134.78;4989123;28;20084;-87
2023/06/15 02:40:11;;;;;;;9.93;5.50;;;10.20;99.90;;;9.87;100.00;101123.41;4995149;28;20030;-87
2023/06/15 02:42:38;;;;;;;9.88;5.30;;;10.10;99.90;;;9.84;100.00;101131.13;4982845;28;20532;-87
2023/06/15 02:45:07;;;;;;;8.07;5.32;;;10.00;99.90;;;9.81;100.00;101134.28;5000975;28;20042;-87
2023/06/15 02:47:35;;;;;;;8.50;4.80;;;10.00;99.90;;;9.68;100.00;101121.41;4998554;28;20050;-87
2023/06/15 02:50:02;;;;;;;7.40;4.70;;;10.00;99.90;;;9.75;100.00;101135.91;4988869;28;20030;-86
2023/06/15 02:52:33;;;;;;;7.65;5.00;;;10.00;99.90;;;9.77;100.00;101133.81;5001370;28;20057;-86
2023/06/15 02:55:01;;;;;;;10.25;5.30;;;10.00;99.90;;;9.75;100.00;101139.47;4987846;28;20045;-87
2023/06/15 02:57:27;;;;;;;9.55;4.63;;;10.00;99.90;;;9.69;100.00;101120.34;5000288;28;20493;-85
2023/06/15 03:00:17;;;;;;;9.30;4.65;;;9.90;99.90;;;9.82;100.00;101146.84;4994310;28;20046;-86
2023/06/15 03:02:52;;;;;;;8.48;5.28;;;9.90;99.90;;;9.83;100.00;101143.09;4970061;28;20490;-87
2023/06/15 03:05:19;;;;;;;8.70;5.35;;;9.90;99.90;;;9.83;100.00;101145.81;4994497;28;20188;-86
2023/06/15 03:07:51;;;;;;;10.25;4.88;;;9.90;99.90;;;9.95;100.00;101146.94;4980703;28;20021;-87
2023/06/15 03:10:26;;;;;;;8.48;5.45;;;10.10;99.90;;;10.03;100.00;101138.59;4987417;28;20037;-87
2023/06/15 03:12:52;;;;;;;8.40;5.60;;;10.20;99.90;;;10.29;100.00;101158.00;4994486;28;20032;-86
2023/06/15 03:15:18;;;;;;;8.13;5.22;;;10.40;99.90;;;10.36;100.00;101154.28;4997674;28;20423;-87
2023/06/15 03:17:45;;;;;;;9.75;5.82;;;10.50;99.90;;;10.32;100.00;101138.50;4981051;28;20030;-87
2023/06/15 03:20:14;;;;;;;9.20;5.85;;;10.60;99.90;;;10.41;100.00;101145.53;4994669;28;20493;-86
2023/06/15 03:22:40;;;;;;;7.78;4.97;;;10.60;99.90;;;10.45;100.00;101154.97;4988358;28;20038;-86
2023/06/15 03:25:11;;;;;;;7.50;4.55;;;10.60;99.90;;;10.50;100.00;101160.66;4995047;28;20036;-86
2023/06/15 03:27:40;;;;;;;8.30;5.03;;;10.60;99.90;;;10.50;100.00;101160.66;4985689;28;20076;-87
2023/06/15 03:30:10;;;;;;;8.70;5.20;;;10.70;99.90;;;10.57;100.00;101162.56;4986545;28;20367;-87
2023/06/15 03:32:37;;;;;;;8.50;5.25;;;10.70;99.90;;;10.67;100.00;101164.91;5007062;28;20037;-87
2023/06/15 03:35:05;;;;;;;9.23;5.15;;;10.70;99.90;;;10.69;100.00;101155.47;4996462;28;20105;-85
2023/06/15 03:37:31;;;;;;;8.70;5.25;;;10.80;99.90;;;10.82;100.00;101168.31;5021377;28;20363;-88
2023/06/15 03:39:58;;;;;;;9.80;5.00;;;10.90;99.90;;;10.88;100.00;101159.31;5005010;28;20068;-88
2023/06/15 03:42:24;;;;;;;8.35;6.03;;;11.10;99.90;;;11.02;100.00;101160.19;5025370;28;20034;-87
2023/06/15 03:44:50;;;;;;;6.40;4.72;;;11.20;99.90;;;11.13;100.00;101166.91;4997543;28;20034;-87
2023/06/15 03:47:16;;;;;;;6.85;4.82;;;11.20;99.90;;;11.19;100.00;101174.28;4994259;28;20393;-87
2023/06/15 03:49:42;;;;;;;7.50;4.88;;;11.30;99.90;;;11.23;100.00;101171.97;5015100;28;20049;-86
2023/06/15 03:52:08;;;;;;;8.70;4.35;;;11.30;99.90;;;11.26;100.00;101179.75;5017255;28;20034;-85
2023/06/15 03:54:34;;;;;;;6.10;4.57;;;11.40;99.90;;;11.21;100.00;101171.34;5008167;28;20030;-86
2023/06/15 03:56:59;;;;;;;7.45;4.32;;;11.40;99.90;;;11.30;100.00;101181.00;5010904;28;20035;-86
2023/06/15 03:59:27;;;;;;;7.10;5.00;;;11.40;99.90;;;11.31;100.00;101185.41;4992504;28;20129;-86
2023/06/15 04:01:53;;;;;;;7.13;4.40;;;11.40;99.90;;;11.32;100.00;101184.38;5003988;28;20026;-87
2023/06/15 04:04:19;;;;;;;6.85;4.60;;;11.40;99.90;;;11.35;100.00;101183.13;4999282;28;20034;-86
2023/06/15 04:06:46;;;;;;;7.25;4.30;;;11.40;99.90;;;11.39;100.00;101189.00;5010524;28;20084;-86
2023/06/15 04:09:14;;;;;;;6.22;4.38;;;11.40;99.90;;;11.39;100.00;101183.53;5005025;28;20025;-87
2023/06/15 04:11:41;;;;;;;8.30;4.95;;;11.50;99.90;;;11.49;100.00;101193.00;4994403;28;20044;-86
2023/06/15 04:14:07;;;;;;;6.85;4.70;;;11.50;99.90;;;11.51;100.00;101185.41;5011380;28;20035;-86
2023/06/15 04:16:33;;;;;;;9.02;4.80;;;11.60;99.90;;;11.61;100.00;101195.13;5011644;28;20060;-87
2023/06/15 04:18:59;;;;;;;7.38;4.30;;;11.70;99.90;;;11.70;100.00;101198.47;5004902;28;20037;-87
2023/06/15 04:21:25;;;;;;;8.05;5.22;;;11.80;99.90;;;11.66;100.00;101179.75;5005325;28;20200;-86
2023/06/15 04:23:51;;;;;;;8.55;5.20;;;11.90;99.90;;;11.91;100.00;101195.50;5006175;28;20046;-86
2023/06/15 04:26:17;;;;;;;9.00;4.93;;;12.00;99.90;;;12.11;100.00;101199.31;4985518;28;20112;-86
2023/06/15 04:28:49;;;;;;;7.78;4.50;;;12.20;99.90;;;12.21;100.00;101189.59;4980968;28;20040;-85
2023/06/15 04:31:20;;;;;;;9.57;5.47;;;12.30;99.90;;;12.48;100.00;101202.34;4990300;28;20046;-87
2023/06/15 04:33:47;;;;;;;8.88;4.80;;;12.60;99.90;;;12.66;100.00;101198.91;4988479;28;20034;-87
2023/06/15 04:36:13;;;;;;;10.18;5.45;;;12.80;99.90;;;12.92;100.00;101183.38;4981795;28;20048;-86
2023/06/15 04:38:49;;;;;;;13.75;5.20;;;13.10;99.90;;;13.15;100.00;101176.50;4991048;28;20664;-86
2023/06/15 04:41:22;;;;;;;11.70;4.82;;;13.30;99.90;;;13.39;100.00;101180.34;4983682;28;20061;-85
2023/06/15 04:43:49;;;;;;;9.02;4.95;;;13.60;99.90;;;13.48;100.00;101168.09;4980604;28;20034;-85
2023/06/15 04:46:17;;;;;;;8.05;5.18;;;13.70;99.90;;;13.72;100.00;101182.00;4994826;28;20489;-85
2023/06/15 04:48:44;;;;;;;12.60;5.50;;;13.90;99.90;;;13.75;100.00;101175.22;4995200;28;20061;-84
2023/06/15 04:51:11;;;;;;;9.23;4.85;;;14.10;99.90;;;13.93;100.00;101186.22;4988902;28;20034;-86
2023/06/15 04:53:44;;;;;;;9.27;5.10;;;14.10;99.90;;;14.01;100.00;101187.00;4986155;28;20096;-86
2023/06/15 04:56:11;;;;;;;10.30;5.10;;;14.30;99.90;;;14.10;99.74;101182.91;4994112;28;20090;-84
2023/06/15 04:58:38;;;;;;;12.18;5.38;;;14.30;99.90;;;14.11;97.47;101170.88;4980884;28;20073;-86
2023/06/15 05:01:06;;;;;;;10.25;4.60;;;14.50;99.90;;;14.33;95.75;101178.66;4998136;28;20438;-85
2023/06/15 05:03:33;;;;;;;10.23;4.75;;;14.60;99.90;;;14.46;93.49;101177.66;4979770;28;20096;-86
2023/06/15 05:05:59;;;;;;;8.75;4.43;;;14.70;99.90;;;14.42;86.93;101163.53;4990379;28;20026;-87
2023/06/15 05:08:25;;;;;;;11.35;4.28;;;14.80;99.90;;;14.55;87.68;101170.78;4987016;28;20046;-86
2023/06/15 05:10:51;;;;;;;9.93;4.53;;;14.90;99.90;;;14.61;88.50;101163.53;4993175;28;20080;-85
2023/06/15 05:13:21;;;;;;;8.98;4.80;;;15.00;99.90;;;14.70;88.04;101173.09;5002032;28;20034;-84
2023/06/15 05:15:48;;;;;;;11.73;4.63;;;15.10;99.90;;;14.70;91.51;101170.38;4985905;28;20129;-87
2023/06/15 05:18:16;;;;;;;9.68;4.82;;;15.10;99.90;;;14.84;85.64;101161.97;5003282;28;20061;-86
2023/06/15 05:20:42;;;;;;;12.48;4.57;;;15.10;99.90;;;14.79;88.19;101148.94;4998642;28;20406;-86
2023/06/15 05:23:08;;;;;;;8.55;5.00;;;15.20;99.90;;;14.98;87.15;101162.59;4991400;28;20027;-87
2023/06/15 05:25:34;;;;;;;9.27;4.88;;;15.30;99.90;;;15.12;86.55;101174.22;4994931;28;20031;-84
2023/06/15 05:28:00;;;;;;;8.80;4.75;;;15.40;99.90;;;15.27;87.83;101188.38;4988360;28;20038;-84
2023/06/15 05:30:28;;;;;;;8.93;4.78;;;15.50;99.90;;;15.43;85.73;101180.53;4976473;28;20042;-83
2023/06/15 05:32:56;;;;;;;6.55;4.10;;;15.60;99.90;;;15.60;84.85;101181.50;5007592;28;20390;-83
2023/06/15 05:35:22;;;;;;;9.15;4.80;;;15.80;99.90;;;15.74;83.43;101189.53;4991743;28;20044;-85
2023/06/15 05:37:48;;;;;;;9.50;4.93;;;15.90;99.90;;;15.71;81.15;101187.28;4993091;28;20394;-86
2023/06/15 05:40:14;;;;;;;9.30;4.72;;;16.00;99.90;;;15.75;80.70;101181.03;5007487;28;20038;-80
2023/06/15 05:42:40;;;;;;;9.98;4.75;;;16.10;99.90;;;15.78;79.38;101172.34;5007326;28;20038;-81
2023/06/15 05:45:08;;;;;;;7.63;4.85;;;16.20;99.90;;;16.00;78.13;101187.41;4975820;28;20041;-85
2023/06/15 05:47:35;;;;;;;7.70;4.40;;;16.20;99.90;;;16.22;77.62;101185.72;4988701;28;20085;-84
2023/06/15 05:50:02;;;;;;;7.95;4.28;;;16.40;99.90;;;16.45;76.26;101184.00;4993700;28;20030;-83
2023/06/15 05:52:30;;;;;;;6.75;4.15;;;16.50;99.90;;;16.61;76.49;101189.81;4990468;28;20041;-83
2023/06/15 05:54:55;;;;;;;8.95;4.20;;;16.70;99.90;;;16.73;74.82;101187.88;4992691;28;20034;-83
2023/06/15 05:57:21;;;;;;;11.93;5.63;;;16.80;99.90;;;16.77;73.96;101178.03;5004092;28;20060;-84
2023/06/15 05:59:47;;;;;;;9.73;4.53;;;16.90;99.90;;;16.93;72.03;101195.69;4993375;28;20443;-84
2023/06/15 06:02:13;;;;;;;9.40;4.57;;;17.00;99.90;;;16.95;71.12;101182.50;4977335;28;20054;-84
2023/06/15 06:04:39;;;;;;;6.72;4.10;;;17.10;99.90;;;17.00;69.87;101173.53;4991462;28;20064;-84
2023/06/15 06:07:06;;;;;;;7.20;4.57;;;17.20;99.90;;;17.06;68.66;101180.81;4994084;28;20050;-83
2023/06/15 06:09:34;;;;;;;6.78;4.20;;;17.30;99.90;;;17.07;64.58;101179.72;5010429;28;20099;-83
2023/06/15 06:12:01;;;;;;;6.88;4.07;;;17.30;98.70;;;17.21;65.70;101171.97;5001282;28;20038;-83
2023/06/15 06:14:28;;;;;;;7.30;3.88;;;17.50;99.40;;;17.60;64.91;101189.69;4985772;28;20046;-82
2023/06/15 06:16:55;;;;;;;7.53;3.85;;;17.70;99.00;;;17.72;65.18;101175.81;4992585;28;20038;-83
2023/06/15 06:19:22;;;;;;;8.20;3.78;;;17.80;99.10;;;17.86;64.19;101176.31;4993165;28;20062;-84
2023/06/15 06:21:48;;;;;;;11.18;3.80;;;18.00;98.90;;;17.83;64.25;101172.16;4987680;28;20109;-82
2023/06/15 06:24:15;;;;;;;10.25;4.13;;;18.00;98.50;;;17.93;64.70;101177.81;4978722;28;20045;-86
2023/06/15 06:26:44;;;;;;;9.48;3.65;;;18.10;98.50;;;18.12;62.09;101183.06;4993426;28;20030;-85
2023/06/15 06:29:10;;;;;;;8.57;3.42;;;18.30;96.80;;;18.23;60.41;101182.09;4992859;28;20029;-83
2023/06/15 06:31:35;;;;;;;10.07;4.03;;;18.30;96.60;;;18.34;61.22;101185.03;4994425;28;20037;-84
2023/06/15 06:34:02;;;;;;;6.68;3.70;;;18.50;97.00;;;18.41;58.16;101180.13;5001336;28;20041;-83
2023/06/15 06:36:28;;;;;;;7.15;4.10;;;18.50;95.50;;;18.49;57.73;101178.84;4992739;28;20052;-84
2023/06/15 06:38:53;;;;;;;8.77;3.90;;;18.60;95.30;;;18.62;56.67;101172.09;5009013;28;20029;-85
2023/06/15 06:41:20;;;;;;;5.55;3.72;;;18.80;94.80;;;18.77;57.24;101183.31;4986751;28;20034;-84
2023/06/15 06:43:45;;;;;;;7.68;3.90;;;18.90;94.80;;;18.66;56.55;101174.06;5007488;28;20037;-84
2023/06/15 06:46:14;;;;;;;7.60;3.47;;;18.90;94.30;;;18.96;59.12;101167.25;5015626;28;20048;-92
2023/06/15 06:48:40;;;;;;;10.07;3.70;;;19.10;95.60;;;19.09;55.52;101170.69;5008757;28;20129;-87
2023/06/15 06:51:05;;;;;;;7.03;3.83;;;19.20;93.60;;;18.91;54.44;101172.69;5007565;28;20038;-88
2023/06/15 06:53:32;;;;;;;5.53;3.30;;;19.20;92.90;;;18.93;54.98;101164.16;4998811;28;20057;-81
2023/06/15 06:55:58;;;;;;;6.25;3.58;;;19.20;93.20;;;19.27;55.79;101175.00;5007562;28;20058;-84
2023/06/15 06:58:24;;;;;;;6.00;3.30;;;19.40;93.80;;;19.47;53.17;101166.03;5008338;28;20402;-86
2023/06/15 07:00:50;;;;;;;7.85;3.47;;;19.50;92.00;;;19.47;51.08;101170.75;5001881;28;20026;-84
2023/06/15 07:03:16;;;;;;;7.45;3.30;;;19.60;91.20;;;19.50;52.03;101176.59;5007636;28;20197;-84
2023/06/15 07:05:41;;;;;;;7.95;3.65;;;19.70;91.70;;;19.77;54.30;101181.22;5004638;28;20080;-81
2023/06/15 07:08:07;;;;;;;7.55;3.33;;;19.80;93.10;;;19.69;50.01;101163.19;5005719;28;20038;-82
2023/06/15 07:10:33;;;;;;;8.40;3.25;;;19.90;90.20;;;19.72;49.96;101166.50;5005218;28;20132;-82
2023/06/15 07:12:59;;;;;;;8.05;3.95;;;19.90;90.00;;;19.86;50.35;101167.69;5004828;28;20479;-80
2023/06/15 07:15:27;;;;;;;9.18;3.58;;;20.10;90.70;;;19.97;51.88;101183.31;4994927;28;20065;-85
2023/06/15 07:17:53;;;;;;;9.73;4.25;;;20.10;91.10;;;20.01;49.58;101174.47;5007068;28;20030;-83
2023/06/15 07:20:19;;;;;;;9.00;3.78;;;20.20;89.30;;;20.10;50.07;101182.00;4991744;28;20034;-82
2023/06/15 07:22:45;;;;;;;9.63;3.60;;;20.30;89.80;;;20.19;49.92;101178.72;5005940;28;20065;-82
2023/06/15 07:25:10;;;;;;;9.20;3.70;;;20.30;90.00;;;19.98;48.72;101165.59;5001396;28;20026;-83
2023/06/15 07:27:36;;;;;;;11.23;3.95;;;20.30;88.20;;;20.07;48.88;101168.72;4993406;28;20172;-83
2023/06/15 07:30:02;;;;;;;9.52;3.58;;;20.20;87.90;;;20.06;47.84;101164.28;4994740;28;20518;-84
2023/06/15 07:32:28;;;;;;;8.50;3.40;;;20.30;86.70;;;20.21;48.60;101180.13;4998555;28;20072;-85
2023/06/15 07:34:53;;;;;;;8.02;3.28;;;20.40;87.90;;;20.21;46.89;101157.13;5003050;28;20038;-85
2023/06/15 07:37:19;;;;;;;7.03;3.53;;;20.40;85.10;;;20.45;47.51;101174.16;5003603;28;20041;-83
2023/06/15 07:39:45;;;;;;;9.77;3.47;;;20.60;85.50;;;20.57;46.49;101160.06;5001481;28;20040;-85
2023/06/15 07:42:11;;;;;;;6.93;3.40;;;20.70;84.60;;;20.83;46.72;101155.44;5002782;28;20399;-85
2023/06/15 07:44:36;;;;;;;5.55;3.15;;;20.90;85.00;;;21.01;46.29;101163.50;4991381;28;20030;-82
2023/06/15 07:47:02;;;;;;;6.13;3.65;;;21.10;84.50;;;21.12;46.75;101168.78;4988785;28;20514;-80
2023/06/15 07:49:28;;;;;;;6.47;3.53;;;21.30;85.20;;;21.19;45.74;101151.03;4993904;28;20041;-81
2023/06/15 07:51:54;;;;;;;6.80;3.05;;;21.40;84.00;;;21.39;46.49;101173.25;4997279;28;20038;-82
2023/06/15 07:54:20;;;;;;;6.07;3.28;;;21.50;85.20;;;21.34;44.79;101164.94;4994025;28;20112;-83
2023/06/15 07:56:46;;;;;;;4.55;2.80;;;21.50;81.90;;;21.42;44.25;101164.38;4992896;28;20489;-84
2023/06/15 07:59:13;;;;;;;10.15;3.20;;;21.60;80.60;;;21.43;43.64;101162.44;5002300;28;20048;-81
2023/06/15 08:01:39;;;;;;;8.50;3.20;;;21.60;80.30;;;21.53;42.87;101156.06;4994081;28;20038;-83
2023/06/15 08:04:05;;;;;;;7.30;3.22;;;21.60;79.50;;;21.59;42.87;101157.72;5001619;28;20406;-83
2023/06/15 08:06:31;;;;;;;5.75;2.88;;;;;;;21.97;43.04;101161.00;4995245;28;20458;-84
2023/06/15 08:08:57;;;;;;;8.38;3.00;;;;;;;22.08;41.08;101152.66;4980984;28;20022;-86
2023/06/15 08:11:23;;;;;;;8.48;3.15;;;;;;;22.12;42.13;101159.28;4993761;28;20061;-84
2023/06/15 08:13:49;;;;;;;5.85;2.88;;;;;;;22.45;40.37;101150.56;5001555;28;20030;-84
2023/06/15 08:16:16;;;;;;;6.50;2.92;;;;;;;22.62;41.15;101161.34;4984593;28;20417;-81
2023/06/15 08:18:42;;;;;;;5.28;2.95;;;;;;;22.48;39.65;101148.06;5006320;28;20029;-78
2023/06/15 08:21:08;;;;;;;7.85;2.90;;;;;;;22.29;38.56;101133.13;5006001;28;20026;-80
2023/06/15 08:23:34;;;;;;;6.93;3.10;;;;;;;21.97;39.39;101144.31;5001901;28;20455;-82
2023/06/15 08:26:00;;;;;;;6.20;3.13;;;;;;;22.18;40.72;101158.16;5009999;28;20116;-81
2023/06/15 08:28:26;;;;;;;6.72;3.10;;;;;;;22.34;39.14;101141.44;5021156;28;20057;-78
2023/06/15 08:30:52;;;;;;;12.32;3.78;;;;;;;22.76;41.35;101159.56;5020513;28;20034;-78
2023/06/15 08:33:18;;;;;;;10.32;3.20;;;;;;;22.67;41.45;101153.78;5004084;28;20033;-80
2023/06/15 08:35:45;;;;;;;9.00;3.20;;;;;;;22.69;39.48;101143.25;5002218;28;20077;-79
2023/06/15 08:38:11;;;;;;;5.53;3.05;;;;;;;22.99;39.30;101137.75;4997846;28;20049;-82
2023/06/15 08:40:37;;;;;;;7.57;3.10;;;;;;;23.19;40.63;101153.44;4999229;28;20030;-80
2023/06/15 08:43:06;;;;;;;5.38;2.92;;;;;;;23.23;38.29;101129.50;4999558;28;20069;-85
2023/06/15 08:45:40;;;;;;;6.05;3.10;;;;;;;22.97;38.31;101129.69;5002853;28;20487;-85
2023/06/15 08:48:09;;;;;;;8.05;3.03;;;;;;;23.31;36.34;101110.53;5009932;28;20121;-84
2023/06/15 08:50:38;;;;;;;6.88;2.55;;;;;;;23.54;36.10;101122.84;4981501;28;20038;-87
2023/06/15 08:53:08;;;;;;;8.80;3.00;;;;;;;23.54;34.92;101100.56;5008736;28;20046;-81
2023/06/15 08:55:37;;;;;;;6.10;2.70;;;;;;;23.45;33.74;101096.78;5003655;28;20062;-88
2023/06/15 08:58:05;;;;;;;10.85;3.40;;;;;;;23.64;35.40;101121.91;4990638;28;20042;-84
2023/06/15 09:00:32;;;;;;;11.45;2.95;;;;;;;23.76;33.45;101094.50;5010414;28;20038;-88
2023/06/15 09:03:00;;;;;;;12.30;3.20;;;;;;;24.32;35.16;101120.06;5007779;28;20443;-83
2023/06/15 09:05:26;;;;;;;8.02;3.13;;;;;;;24.92;33.18;101093.53;5005728;28;20087;-88
2023/06/15 09:07:53;;;;;;;10.48;2.78;;;;;;;25.28;33.41;101090.13;4997127;28;20142;-86
2023/06/15 09:10:21;;;;;;;6.88;2.85;;;;;;;25.23;30.45;101064.31;5012257;28;20046;-87
2023/06/15 09:12:47;;;;;;;;;;;;;;;25.21;30.29;101061.00;5004063;28;20038;-87
2023/06/15 09:15:29;;;;;;;5.22;2.65;;;;;;;25.20;30.08;101059.34;5015110;28;19932;-85
2023/06/15 09:18:00;;;;;;;5.50;2.97;;;;;;;24.03;31.23;101081.13;5002857;28;20038;-86
2023/06/15 09:20:29;;;;;;;7.20;2.92;;;;;;;24.32;31.16;101082.97;5010530;28;20045;-83
2023/06/15 09:23:01;;;;;;;7.35;2.70;;;;;;;24.48;31.52;101078.00;4988138;28;20054;-91
2023/06/15 09:25:29;;;;;;;5.20;2.40;;;;;;;24.06;30.72;101075.78;4996365;28;20046;-83
2023/06/15 09:28:00;;;;;;;6.95;2.97;;;;;;;23.45;31.07;101077.28;4999283;28;20474;-79
2023/06/15 09:30:39;;;;;;;5.20;2.67;;;;;;;23.21;30.92;101066.91;4996675;28;20093;-80
2023/06/15 09:33:13;;;;;;;5.43;2.67;;;;;;;23.50;31.78;101080.84;5002198;28;20661;-83
2023/06/15 09:36:03;;;;;;;7.68;2.60;;;;;;;24.27;29.82;101047.66;4997448;28;20030;-83
2023/06/15 09:38:41;;;;;;;7.20;2.80;;;;;;;25.40;30.32;101069.28;4995448;28;20100;-85
2023/06/15 09:41:08;;;;;;;4.97;2.20;;;;;;;25.21;26.78;101000.38;5001137;28;20038;-83
2023/06/15 09:43:38;;;;;;;6.63;2.78;;;;;;;25.94;27.66;101029.72;4996090;28;20042;-82
2023/06/15 09:46:18;;;;;;;7.30;2.58;;;;;;;26.75;27.70;101030.94;4996252;28;20037;-81
2023/06/15 09:48:48;;;;;;;6.25;2.47;;;;;;;27.43;26.40;101022.47;4993501;28;20045;-82
2023/06/15 09:51:15;;;;;;;6.85;2.80;;;;;;;26.98;27.83;101039.34;5002100;28;20099;-84
2023/06/15 09:53:43;;;;;;;5.55;2.55;;;;;;;27.22;25.62;101010.19;5001458;28;20390;-82
2023/06/15 09:56:10;;;;;;;6.38;2.60;;;;;;;26.77;25.60;101011.84;5004814;28;20035;-82
2023/06/15 09:58:36;;;;;;;6.85;2.92;;;;;;;25.53;25.29;100993.09;4994023;28;20069;-80
2023/06/15 10:01:04;;;;;;;5.53;2.67;;;;;;;25.96;25.08;100989.13;5002303;28;20042;-78
2023/06/15 10:03:37;;;;;;;4.60;2.15;;;;;;;25.03;26.53;101013.28;5009181;28;20061;-85
2023/06/15 10:06:15;;;;;;;5.70;3.20;;;;;;;25.49;27.92;101039.53;5000070;28;20076;-77
2023/06/15 10:08:43;;;;;;;5.13;2.67;;;;;;;25.95;26.94;101029.38;4997486;28;20045;-84
2023/06/15 10:11:11;;;;;;;8.07;3.20;;;;;;;27.14;26.90;101032.22;5003096;28;20283;-78
2023/06/15 10:14:00;;;;;;;8.95;3.30;;;;;;;27.84;26.26;101040.13;5000338;28;20034;-79
2023/06/15 10:16:27;;;;;;;6.13;3.63;;;;;;;28.65;25.17;101022.25;4985039;28;20073;-77
2023/06/15 10:19:01;;;;;;;6.25;3.05;;;;;;;29.12;25.71;101025.16;4995753;28;20037;-76
2023/06/15 10:21:31;;;;;;;7.03;3.55;;;;;;;28.84;24.50;100999.47;4997541;28;20047;-77
2023/06/15 10:24:05;;;;;;;7.03;2.80;;;;;;;28.87;24.49;101009.19;4994033;28;20049;-79
2023/06/15 10:26:31;;;;;;;5.68;3.13;;;;;;;30.24;24.31;101025.31;5007401;28;20038;-78
2023/06/15 10:29:06;;;;;;;7.80;2.97;;;;;;;32.18;22.11;101000.56;5002959;28;20393;-78